Time;durP1;ratioP1;P1;durP2;ratioP2;P2;SDS_P1;SDS_P2;PMS_P1;PMS_P2;Temp;Humidity;BMP_temperature;BMP_pressure;BME280_temperature;BME280_humidity;BME280_pressure;Samples;Min_cycle;Max_cycle;Signal;HPM_P1;HPM_P2
2022/07/14 00:00:41;;;;;;;4.60;2.80;;;22.90;83.30;;;;;;6048022;23;20474;-85
2022/07/14 00:03:08;;;;;;;2.47;2.27;;;22.90;82.60;;;;;;6066756;23;20445;-85
2022/07/14 00:05:37;;;;;;;2.63;2.10;;;22.90;81.30;;;;;;6057342;23;20940;-84
2022/07/14 00:08:04;;;;;;;2.43;2.10;;;22.90;80.80;;;;;;6055561;23;20542;-84
2022/07/14 00:10:32;;;;;;;2.30;2.13;;;22.90;78.90;;;;;;6061418;23;20437;-85
2022/07/14 00:12:59;;;;;;;2.77;2.23;;;23.00;81.00;;;;;;6052365;23;20951;-84
2022/07/14 00:15:27;;;;;;;3.03;2.23;;;23.10;81.80;;;;;;6056148;23;20495;-85
2022/07/14 00:17:55;;;;;;;2.50;1.90;;;22.90;82.20;;;;;;6058088;23;20512;-85
2022/07/14 00:20:22;;;;;;;2.73;2.10;;;22.90;83.00;;;;;;6059649;23;20452;-85
2022/07/14 00:22:51;;;;;;;3.37;2.37;;;22.90;81.30;;;;;;6055796;23;20497;-85
2022/07/14 00:25:18;;;;;;;3.43;1.77;;;22.90;80.30;;;;;;6045953;23;20563;-84
2022/07/14 00:27:46;;;;;;;1.33;1.23;;;22.80;77.80;;;;;;6053848;23;20458;-85
2022/07/14 00:30:13;;;;;;;1.60;1.50;;;22.80;74.00;;;;;;6063444;23;20459;-85
2022/07/14 00:32:40;;;;;;;1.67;1.30;;;22.90;74.40;;;;;;6065054;23;20514;-84
2022/07/14 00:35:09;;;;;;;1.40;1.30;;;22.80;73.70;;;;;;6059611;23;20445;-85
2022/07/14 00:37:36;;;;;;;1.87;1.73;;;22.90;75.00;;;;;;6057497;23;20468;-85
2022/07/14 00:40:06;;;;;;;1.70;1.60;;;22.90;74.80;;;;;;6058412;23;20895;-85
2022/07/14 00:42:35;;;;;;;2.00;1.90;;;22.90;73.70;;;;;;6050377;23;20475;-86
2022/07/14 00:45:04;;;;;;;3.27;1.60;;;23.00;74.10;;;;;;6058116;23;20468;-85
2022/07/14 00:47:31;;;;;;;1.77;1.50;;;23.00;73.70;;;;;;6059611;23;20599;-83
2022/07/14 00:49:58;;;;;;;2.10;1.57;;;23.00;74.20;;;;;;6056505;23;20500;-84
2022/07/14 00:52:27;;;;;;;3.00;2.17;;;22.90;75.40;;;;;;6056315;23;20465;-84
2022/07/14 00:54:55;;;;;;;2.10;1.83;;;23.00;77.70;;;;;;6054512;23;20945;-85
2022/07/14 00:57:24;;;;;;;2.87;2.67;;;22.80;78.80;;;;;;6058211;23;20531;-85
2022/07/14 00:59:51;;;;;;;3.30;3.00;;;22.80;81.10;;;;;;6059030;23;20444;-85
2022/07/14 01:02:19;;;;;;;2.70;2.50;;;22.50;83.20;;;;;;6059083;23;20492;-84
2022/07/14 01:04:47;;;;;;;3.93;2.87;;;22.20;84.60;;;;;;6057296;23;20934;-85
2022/07/14 01:07:15;;;;;;;3.50;2.73;;;22.10;85.50;;;;;;6055601;23;20447;-85
2022/07/14 01:09:43;;;;;;;2.87;2.60;;;22.00;86.70;;;;;;6046689;23;20506;-85
2022/07/14 01:12:11;;;;;;;4.33;2.80;;;21.90;87.60;;;;;;6051195;23;20470;-85
2022/07/14 01:14:41;;;;;;;3.13;2.77;;;22.00;88.10;;;;;;6060882;23;20442;-85
2022/07/14 01:17:09;;;;;;;2.67;2.47;;;21.80;86.40;;;;;;6064879;23;20513;-85
2022/07/14 01:19:37;;;;;;;4.20;2.30;;;21.80;84.80;;;;;;6066350;23;20444;-85
2022/07/14 01:22:06;;;;;;;3.30;2.90;;;21.90;85.20;;;;;;6060341;23;20475;-85
2022/07/14 01:24:34;;;;;;;5.33;2.83;;;21.90;86.60;;;;;;6060897;23;20957;-85
2022/07/14 01:27:01;;;;;;;4.83;2.83;;;21.90;87.70;;;;;;6059221;23;20486;-84
2022/07/14 01:29:29;;;;;;;3.03;2.73;;;21.80;88.80;;;;;;6059479;23;20459;-85
2022/07/14 01:31:56;;;;;;;2.50;2.30;;;21.80;88.60;;;;;;6058362;23;21032;-85
2022/07/14 01:34:23;;;;;;;2.57;2.30;;;21.70;84.80;;;;;;6057905;23;21071;-84
2022/07/14 01:36:52;;;;;;;3.50;2.13;;;21.50;85.10;;;;;;6056271;23;20472;-84
2022/07/14 01:39:20;;;;;;;3.30;2.43;;;21.50;84.40;;;;;;6054598;23;20470;-85
2022/07/14 01:41:49;;;;;;;3.50;2.57;;;21.80;85.80;;;;;;6055446;23;20586;-85
2022/07/14 01:44:17;;;;;;;2.87;2.57;;;21.60;86.60;;;;;;6061228;23;20442;-84
2022/07/14 01:46:44;;;;;;;3.10;2.70;;;21.60;88.70;;;;;;6057948;23;20517;-84
2022/07/14 01:49:12;;;;;;;4.03;3.07;;;21.50;89.60;;;;;;6058215;23;20896;-85
2022/07/14 01:51:39;;;;;;;5.10;2.90;;;21.50;90.20;;;;;;6057737;23;20470;-85
2022/07/14 01:54:06;;;;;;;3.90;3.10;;;21.40;90.60;;;;;;6058563;23;20980;-85
2022/07/14 01:56:39;;;;;;;3.00;2.70;;;21.30;90.80;;;;;;6055853;23;20569;-85
2022/07/14 01:59:06;;;;;;;3.43;3.00;;;21.10;91.30;;;;;;6051662;23;20472;-85
2022/07/14 02:01:40;;;;;;;4.30;2.90;;;21.10;91.80;;;;;;6058687;23;20462;-85
2022/07/14 02:04:09;;;;;;;4.40;3.00;;;21.00;92.10;;;;;;6060254;23;20918;-85
2022/07/14 02:06:36;;;;;;;4.83;3.17;;;20.90;92.50;;;;;;6058261;23;20446;-85
2022/07/14 02:09:04;;;;;;;3.40;3.10;;;20.90;92.90;;;;;;6059593;23;20470;-85
2022/07/14 02:14:17;;;;;;;5.90;3.60;;;20.70;93.50;;;;;;6059210;23;21015;-85
2022/07/14 02:16:44;;;;;;;3.63;2.63;;;20.60;94.00;;;;;;6059495;23;20470;-85
2022/07/14 02:19:11;;;;;;;3.57;3.27;;;20.60;94.50;;;;;;6059838;23;20543;-84
2022/07/14 02:21:40;;;;;;;3.77;3.20;;;20.70;95.10;;;;;;6058812;23;20465;-85
2022/07/14 02:24:07;;;;;;;3.97;2.97;;;20.40;95.50;;;;;;6059611;23;20496;-85
2022/07/14 02:26:34;;;;;;;3.40;3.10;;;20.40;95.90;;;;;;6062020;23;20557;-85
2022/07/14 02:29:01;;;;;;;3.40;3.10;;;20.20;96.40;;;;;;6052826;23;20474;-85
2022/07/14 02:31:29;;;;;;;3.03;2.77;;;20.30;97.00;;;;;;6057102;23;20497;-85
2022/07/14 02:33:56;;;;;;;4.80;3.47;;;20.10;97.50;;;;;;6058518;23;20480;-85
2022/07/14 02:36:24;;;;;;;3.30;3.00;;;20.00;98.10;;;;;;6059555;23;20465;-85
2022/07/14 02:38:51;;;;;;;3.70;3.13;;;19.90;98.80;;;;;;6059308;23;20446;-85
2022/07/14 02:41:18;;;;;;;3.37;3.07;;;19.80;99.60;;;;;;6060488;23;20611;-85
2022/07/14 02:43:45;;;;;;;3.73;3.13;;;19.70;99.90;;;;;;6058214;23;20452;-85
2022/07/14 02:46:12;;;;;;;4.03;3.37;;;19.70;99.90;;;;;;6058555;23;20568;-85
2022/07/14 02:48:40;;;;;;;3.80;3.37;;;19.80;99.90;;;;;;6054391;23;20449;-85
2022/07/14 02:51:09;;;;;;;4.67;3.70;;;19.70;99.90;;;;;;6061065;23;20883;-85
2022/07/14 02:53:37;;;;;;;3.47;3.13;;;19.60;99.90;;;;;;6050065;23;20520;-85
2022/07/14 02:56:05;;;;;;;4.20;3.20;;;19.60;99.90;;;;;;6062449;23;20481;-85
2022/07/14 02:58:33;;;;;;;3.37;3.07;;;19.60;99.90;;;;;;6060458;23;20457;-84
2022/07/14 03:01:00;;;;;;;2.60;2.40;;;19.50;99.90;;;;;;6058875;23;20471;-85
2022/07/14 03:03:27;;;;;;;2.87;2.67;;;19.40;99.90;;;;;;6059938;23;20536;-85
2022/07/14 03:05:55;;;;;;;3.03;2.67;;;19.30;99.90;;;;;;6060496;23;20450;-85
2022/07/14 03:08:22;;;;;;;3.60;2.70;;;19.30;99.90;;;;;;6054963;23;20447;-87
2022/07/14 03:10:50;;;;;;;3.53;2.53;;;19.20;99.90;;;;;;6067279;23;21078;-83
2022/07/14 03:13:17;;;;;;;5.07;2.60;;;19.30;99.90;;;;;;6061099;23;20441;-84
2022/07/14 03:15:44;;;;;;;2.43;2.23;;;19.00;99.90;;;;;;6054887;23;20445;-85
2022/07/14 03:18:13;;;;;;;2.87;2.60;;;19.00;99.90;;;;;;6059684;23;20479;-85
2022/07/14 03:20:40;;;;;;;4.20;3.03;;;18.80;99.90;;;;;;6057895;23;20952;-84
2022/07/14 03:23:08;;;;;;;3.03;2.70;;;18.70;99.90;;;;;;6051235;23;20446;-85
2022/07/14 03:25:36;;;;;;;3.47;3.17;;;18.60;99.90;;;;;;6059340;23;20480;-85
2022/07/14 03:28:03;;;;;;;3.23;2.53;;;18.60;99.90;;;;;;6060262;23;20473;-85
2022/07/14 03:30:30;;;;;;;3.20;2.90;;;18.40;99.90;;;;;;6057838;23;20492;-84
2022/07/14 03:32:57;;;;;;;3.77;2.70;;;18.40;99.90;;;;;;6056739;23;20843;-85
2022/07/14 03:35:25;;;;;;;4.57;2.93;;;18.30;99.90;;;;;;6049742;23;20595;-84
2022/07/14 03:37:54;;;;;;;2.67;2.47;;;18.30;99.90;;;;;;6055618;23;20587;-86
2022/07/14 03:40:22;;;;;;;4.50;3.57;;;18.30;99.90;;;;;;6054421;23;20468;-84
2022/07/14 03:42:50;;;;;;;4.90;3.33;;;18.40;99.90;;;;;;6059449;23;20559;-85
2022/07/14 03:45:17;;;;;;;6.03;3.93;;;18.20;99.90;;;;;;6050212;23;20462;-89
2022/07/14 03:47:44;;;;;;;5.27;4.20;;;18.20;99.90;;;;;;6057525;23;20449;-88
2022/07/14 03:50:11;;;;;;;4.17;3.87;;;18.20;99.90;;;;;;6060250;23;20492;-87
2022/07/14 03:52:38;;;;;;;3.80;3.40;;;18.20;99.90;;;;;;6053135;23;20457;-88
2022/07/14 03:55:06;;;;;;;4.97;4.37;;;18.20;99.90;;;;;;6051345;23;20453;-88
2022/07/14 03:57:35;;;;;;;4.37;3.97;;;18.10;99.90;;;;;;6055016;23;20478;-86
2022/07/14 04:00:02;;;;;;;4.50;3.50;;;18.10;99.90;;;;;;6054650;23;20449;-88
2022/07/14 04:02:29;;;;;;;3.60;3.30;;;18.20;99.90;;;;;;6055696;23;20516;-88
2022/07/14 04:04:56;;;;;;;4.17;3.27;;;18.10;99.90;;;;;;6052568;23;21313;-88
2022/07/14 04:07:24;;;;;;;4.53;3.60;;;18.10;99.90;;;;;;6056224;23;20463;-91
2022/07/14 04:09:51;;;;;;;3.87;3.37;;;18.20;99.90;;;;;;6057605;23;20441;-88
2022/07/14 04:12:18;;;;;;;7.00;4.13;;;18.20;99.90;;;;;;6057629;23;20477;-86
2022/07/14 04:14:47;;;;;;;4.73;3.87;;;18.30;99.90;;;;;;6054150;23;20442;-88
2022/07/14 04:17:14;;;;;;;3.90;3.60;;;18.50;99.90;;;;;;6055185;23;20496;-86
2022/07/14 04:19:41;;;;;;;4.13;3.60;;;18.40;99.90;;;;;;6057913;23;20537;-86
2022/07/14 04:22:08;;;;;;;5.10;3.13;;;18.40;99.90;;;;;;6058228;23;20508;-87
2022/07/14 04:24:35;;;;;;;3.67;3.00;;;18.50;99.90;;;;;;6057692;23;20532;-86
2022/07/14 04:27:02;;;;;;;3.97;3.50;;;18.50;99.90;;;;;;6054182;23;20452;-88
2022/07/14 04:29:29;;;;;;;5.03;3.40;;;18.60;99.90;;;;;;6056709;23;20485;-82
2022/07/14 04:31:57;;;;;;;4.10;3.20;;;18.60;99.90;;;;;;6055940;23;20551;-83
2022/07/14 04:34:25;;;;;;;5.70;3.67;;;18.60;99.90;;;;;;6043462;23;20446;-83
2022/07/14 04:36:52;;;;;;;4.80;3.67;;;18.60;99.90;;;;;;6050982;23;20806;-87
2022/07/14 04:39:19;;;;;;;3.57;3.30;;;18.60;99.90;;;;;;6050124;23;20872;-86
2022/07/14 04:41:46;;;;;;;4.30;3.70;;;18.70;99.90;;;;;;6050576;23;20500;-84
2022/07/14 04:44:14;;;;;;;4.23;3.20;;;18.70;99.90;;;;;;6053386;23;20993;-86
2022/07/14 04:46:41;;;;;;;5.63;3.40;;;18.70;99.90;;;;;;6055251;23;20442;-85
2022/07/14 04:52:03;;;;;;;5.97;4.03;;;18.90;99.90;;;;;;6055628;23;20466;-86
2022/07/14 04:54:31;;;;;;;4.40;4.00;;;18.90;99.90;;;;;;6055695;23;21118;-86
2022/07/14 04:56:58;;;;;;;4.07;3.40;;;19.00;99.90;;;;;;6049966;23;20499;-85
2022/07/14 04:59:25;;;;;;;4.53;3.90;;;19.00;99.90;;;;;;6058181;23;20483;-86
2022/07/14 05:01:52;;;;;;;4.23;3.83;;;19.00;99.90;;;;;;6055192;23;20468;-86
2022/07/14 05:04:21;;;;;;;5.30;3.83;;;19.00;99.90;;;;;;6055712;23;20440;-86
2022/07/14 05:06:49;;;;;;;5.33;3.87;;;19.00;99.90;;;;;;6051782;23;20945;-86
2022/07/14 05:09:18;;;;;;;4.23;3.70;;;19.10;99.90;;;;;;6060531;23;20445;-86
2022/07/14 05:11:46;;;;;;;4.20;3.53;;;19.10;99.90;;;;;;6056310;23;20464;-86
2022/07/14 05:14:13;;;;;;;4.43;3.50;;;19.10;99.90;;;;;;6056948;23;20446;-86
2022/07/14 05:16:40;;;;;;;4.60;4.07;;;19.20;99.90;;;;;;6056511;23;21019;-86
2022/07/14 05:19:08;;;;;;;3.67;3.37;;;19.20;99.90;;;;;;6056706;23;20452;-85
2022/07/14 05:21:36;;;;;;;4.30;3.90;;;19.30;99.90;;;;;;6057304;23;21043;-86
2022/07/14 05:24:04;;;;;;;4.00;3.70;;;19.30;99.90;;;;;;6055855;23;20472;-86
2022/07/14 05:26:31;;;;;;;4.53;3.90;;;19.40;99.90;;;;;;6056991;23;20936;-86
2022/07/14 05:28:58;;;;;;;4.40;3.53;;;19.40;99.90;;;;;;6052231;23;20461;-86
2022/07/14 05:31:25;;;;;;;4.03;3.63;;;19.40;99.90;;;;;;6056709;23;21013;-86
2022/07/14 05:33:52;;;;;;;4.10;3.60;;;19.40;99.90;;;;;;6056185;23;20457;-86
2022/07/14 05:36:21;;;;;;;3.97;3.57;;;19.50;99.90;;;;;;6051960;23;20437;-86
2022/07/14 05:38:50;;;;;;;3.70;3.13;;;19.50;99.90;;;;;;6053423;23;20507;-86
2022/07/14 05:41:19;;;;;;;7.13;3.83;;;19.50;99.90;;;;;;6051382;23;21018;-86
2022/07/14 05:43:47;;;;;;;3.80;3.50;;;19.60;99.90;;;;;;6059226;23;20489;-87
2022/07/14 05:46:14;;;;;;;5.43;3.47;;;19.60;99.90;;;;;;6056679;23;20511;-86
2022/07/14 05:48:44;;;;;;;6.30;3.83;;;19.70;99.90;;;;;;6057181;23;20441;-87
2022/07/14 05:51:13;;;;;;;4.00;3.60;;;19.80;99.90;;;;;;6052450;23;20466;-87
2022/07/14 05:53:41;;;;;;;3.57;3.13;;;19.80;99.90;;;;;;6054391;23;20454;-86
2022/07/14 05:56:11;;;;;;;3.77;3.07;;;19.90;99.90;;;;;;6053881;23;20548;-86
2022/07/14 05:58:39;;;;;;;4.23;3.20;;;20.10;99.90;;;;;;6049702;23;20454;-86
2022/07/14 06:01:08;;;;;;;3.43;2.97;;;20.20;99.90;;;;;;6054991;23;20461;-87
2022/07/14 06:03:35;;;;;;;4.50;3.23;;;20.40;99.90;;;;;;6057428;23;20504;-86
2022/07/14 06:06:03;;;;;;;3.33;2.87;;;20.50;99.90;;;;;;6059712;23;20441;-85
2022/07/14 06:08:30;;;;;;;4.97;3.57;;;20.70;99.90;;;;;;6056757;23;20936;-87
2022/07/14 06:10:58;;;;;;;3.60;3.03;;;20.80;99.90;;;;;;6060363;23;20471;-86
2022/07/14 06:13:28;;;;;;;3.87;2.87;;;20.90;99.90;;;;;;6059782;23;20442;-86
2022/07/14 06:15:56;;;;;;;4.70;2.90;;;21.10;99.90;;;;;;6059143;23;20516;-87
2022/07/14 06:18:24;;;;;;;3.40;3.00;;;21.30;99.90;;;;;;6057431;23;20477;-87
2022/07/14 06:20:51;;;;;;;3.70;3.00;;;21.40;99.90;;;;;;6060825;23;20478;-87
2022/07/14 06:23:18;;;;;;;5.70;3.40;;;21.60;99.90;;;;;;6058937;23;20459;-87
2022/07/14 06:25:45;;;;;;;3.40;2.80;;;21.70;99.90;;;;;;6061665;23;20446;-86
2022/07/14 06:28:12;;;;;;;5.23;3.43;;;21.80;99.90;;;;;;6061635;23;20529;-86
2022/07/14 06:30:41;;;;;;;4.20;3.20;;;21.90;99.90;;;;;;6054427;23;20481;-86
2022/07/14 06:33:07;;;;;;;6.03;3.30;;;21.90;99.90;;;;;;6048906;23;20933;-86
2022/07/14 06:35:37;;;;;;;5.23;3.97;;;22.00;99.90;;;;;;6055969;23;20934;-87
2022/07/14 06:38:05;;;;;;;5.20;3.40;;;22.10;99.90;;;;;;6058337;23;20521;-87
2022/07/14 06:40:32;;;;;;;3.83;3.00;;;22.30;99.90;;;;;;6054561;23;20513;-87
2022/07/14 06:42:59;;;;;;;4.00;2.50;;;22.40;99.90;;;;;;6053767;23;20442;-87
2022/07/14 06:45:26;;;;;;;4.07;2.80;;;22.70;99.90;;;;;;6053679;23;20444;-86
2022/07/14 06:47:55;;;;;;;3.67;2.80;;;22.80;99.90;;;;;;6055492;23;20929;-86
2022/07/14 06:50:22;;;;;;;6.20;3.00;;;23.00;99.90;;;;;;6055424;23;20532;-87
2022/07/14 06:52:49;;;;;;;7.53;3.37;;;23.20;99.90;;;;;;6050873;23;20433;-86
2022/07/14 06:55:17;;;;;;;4.20;3.20;;;23.40;99.90;;;;;;6058948;23;20436;-86
2022/07/14 06:57:44;;;;;;;3.63;2.60;;;23.50;99.90;;;;;;6057570;23;20475;-87
2022/07/14 07:00:12;;;;;;;6.33;2.93;;;23.60;99.90;;;;;;6055332;23;20794;-86
2022/07/14 07:02:40;;;;;;;3.60;2.90;;;23.70;99.90;;;;;;6050925;23;20445;-86
2022/07/14 07:07:58;;;;;;;4.60;3.10;;;24.00;99.90;;;;;;6051516;23;20441;-87
2022/07/14 07:10:25;;;;;;;6.23;2.63;;;24.20;99.90;;;;;;6056997;23;20460;-86
2022/07/14 07:12:52;;;;;;;3.83;3.43;;;24.50;99.90;;;;;;6056360;23;20429;-86
2022/07/14 07:15:19;;;;;;;4.10;3.27;;;24.70;99.90;;;;;;6059486;23;20449;-86
2022/07/14 07:17:46;;;;;;;3.23;2.90;;;24.80;99.90;;;;;;6054942;23;20463;-86
2022/07/14 07:20:15;;;;;;;4.03;3.33;;;25.00;99.90;;;;;;6051538;23;20472;-86
2022/07/14 07:22:42;;;;;;;6.33;3.13;;;25.10;99.90;;;;;;6056063;23;20453;-87
2022/07/14 07:25:12;;;;;;;5.40;2.70;;;25.30;99.90;;;;;;6058779;23;20547;-86
2022/07/14 07:27:39;;;;;;;6.40;3.30;;;25.50;99.90;;;;;;6053545;23;20454;-86
2022/07/14 07:30:09;;;;;;;6.50;3.30;;;25.70;98.80;;;;;;6051808;23;20492;-84
2022/07/14 07:32:36;;;;;;;3.40;2.80;;;25.80;98.50;;;;;;6055128;23;20460;-87
2022/07/14 07:35:03;;;;;;;5.13;3.03;;;25.90;99.30;;;;;;6054768;23;20482;-86
2022/07/14 07:37:31;;;;;;;6.23;3.20;;;26.00;98.90;;;;;;6049628;23;20460;-86
2022/07/14 07:40:00;;;;;;;4.47;2.93;;;26.20;98.90;;;;;;6055222;23;20465;-86
2022/07/14 07:42:28;;;;;;;3.00;2.77;;;26.50;98.70;;;;;;6047540;23;20448;-87
2022/07/14 07:44:55;;;;;;;5.90;3.10;;;26.90;98.50;;;;;;6058409;23;20449;-87
2022/07/14 07:47:23;;;;;;;5.57;2.80;;;27.50;97.40;;;;;;6056827;23;20479;-87
2022/07/14 07:49:50;;;;;;;4.93;3.40;;;28.00;95.00;;;;;;6057614;23;20501;-87
2022/07/14 07:52:17;;;;;;;5.03;3.00;;;28.50;92.90;;;;;;6057011;23;20931;-87
2022/07/14 07:54:46;;;;;;;4.27;2.83;;;29.10;91.50;;;;;;6060822;23;20951;-86
2022/07/14 07:57:14;;;;;;;2.70;2.50;;;29.60;90.30;;;;;;6057979;23;20471;-87
2022/07/14 07:59:41;;;;;;;5.50;2.80;;;30.00;88.40;;;;;;6059639;23;20511;-86
2022/07/14 08:02:08;;;;;;;5.27;2.70;;;30.40;84.70;;;;;;6052945;23;20448;-86
2022/07/14 08:04:35;;;;;;;2.67;2.47;;;30.50;84.90;;;;;;6060671;23;20444;-87
2022/07/14 08:07:02;;;;;;;5.10;3.10;;;30.80;83.30;;;;;;6058867;23;20440;-87
2022/07/14 08:09:29;;;;;;;3.10;2.43;;;31.00;82.80;;;;;;6060712;23;20511;-87
2022/07/14 08:11:57;;;;;;;3.40;2.30;;;31.20;81.70;;;;;;6052839;23;20525;-84
2022/07/14 08:17:10;;;;;;;4.13;2.40;;;31.40;79.20;;;;;;6057353;23;20454;-85
2022/07/14 08:19:37;;;;;;;4.90;2.50;;;31.40;80.60;;;;;;6060069;23;20483;-85
2022/07/14 08:22:04;;;;;;;3.73;2.20;;;31.70;77.20;;;;;;6050718;23;20440;-85
2022/07/14 08:24:31;;;;;;;3.77;2.40;;;32.00;74.60;;;;;;6055506;23;20443;-85
2022/07/14 08:27:00;;;;;;;2.33;2.13;;;32.00;74.00;;;;;;6054398;23;20494;-85
2022/07/14 08:29:27;;;;;;;4.97;2.40;;;32.10;74.20;;;;;;6055065;23;21008;-85
2022/07/14 08:31:54;;;;;;;3.83;2.40;;;32.60;72.60;;;;;;6056532;23;20431;-84
2022/07/14 08:34:21;;;;;;;2.87;2.00;;;33.00;71.40;;;;;;6058079;23;21145;-86
2022/07/14 08:36:48;;;;;;;4.67;2.50;;;33.30;70.20;;;;;;6053627;23;20447;-85
2022/07/14 08:39:15;;;;;;;3.83;2.80;;;33.80;66.70;;;;;;6059462;23;20479;-85
2022/07/14 08:41:43;;;;;;;4.63;2.20;;;34.20;66.90;;;;;;6052502;23;20452;-86
2022/07/14 08:44:14;;;;;;;5.27;2.10;;;34.40;63.00;;;;;;6052807;23;20930;-86
2022/07/14 08:46:41;;;;;;;3.70;2.07;;;34.90;62.00;;;;;;6058059;23;20811;-86
2022/07/14 08:49:09;;;;;;;2.50;2.10;;;35.50;58.90;;;;;;6056287;23;20447;-86
2022/07/14 08:51:39;;;;;;;5.80;4.50;;;35.90;57.10;;;;;;6055223;23;20452;-86
2022/07/14 08:54:08;;;;;;;4.60;2.20;;;36.10;58.00;;;;;;6058156;23;20493;-86
2022/07/14 08:56:35;;;;;;;3.97;2.10;;;36.30;53.10;;;;;;6058676;23;20444;-86
2022/07/14 08:59:02;;;;;;;4.40;2.20;;;36.30;54.20;;;;;;6058703;23;20963;-86
2022/07/14 09:01:30;;;;;;;2.13;1.87;;;36.90;54.60;;;;;;6049525;23;20454;-86
2022/07/14 09:03:59;;;;;;;2.80;2.13;;;37.10;52.00;;;;;;6052043;23;20455;-86
2022/07/14 09:06:49;;;;;;;3.10;1.83;;;37.40;50.70;;;;;;6048009;23;20870;-85
2022/07/14 09:09:18;;;;;;;5.10;2.00;;;37.70;50.80;;;;;;6050156;23;20446;-86
2022/07/14 09:11:57;;;;;;;4.73;2.10;;;37.70;50.40;;;;;;6057413;23;20526;-86
2022/07/14 09:14:25;;;;;;;3.07;2.00;;;37.90;49.10;;;;;;6054126;23;20458;-85
2022/07/14 09:17:13;;;;;;;5.27;1.97;;;37.90;48.40;;;;;;6060696;23;20466;-86
2022/07/14 09:20:03;;;;;;;3.23;1.90;;;37.90;49.10;;;;;;6053870;23;20804;-86
2022/07/14 09:22:32;;;;;;;2.60;1.70;;;38.60;47.90;;;;;;6060488;23;20530;-86
2022/07/14 09:24:59;;;;;;;3.53;2.00;;;39.30;45.20;;;;;;6063162;23;20432;-86
2022/07/14 09:27:27;;;;;;;5.67;2.00;;;39.50;45.90;;;;;;6053888;23;20860;-86
2022/07/14 09:29:55;;;;;;;3.30;1.50;;;39.70;42.30;;;;;;6062382;23;20464;-85
2022/07/14 09:32:42;;;;;;;2.80;1.80;;;39.80;40.50;;;;;;6054575;23;20793;-86
2022/07/14 09:35:11;;;;;;;3.50;2.00;;;39.80;41.50;;;;;;6047713;23;20457;-85
2022/07/14 09:37:39;;;;;;;1.93;1.70;;;40.20;41.10;;;;;;6060426;23;20957;-86
2022/07/14 09:40:10;;;;;;;3.77;1.70;;;40.60;39.50;;;;;;6061854;23;20482;-86
2022/07/14 09:43:01;;;;;;;3.20;1.70;;;40.20;37.60;;;;;;6058545;23;20453;-85
2022/07/14 09:45:29;;;;;;;2.37;1.70;;;39.70;38.80;;;;;;6046815;23;20515;-85
2022/07/14 09:48:00;;;;;;;5.53;1.90;;;39.20;38.80;;;;;;6058898;23;20443;-85
2022/07/14 09:50:37;;;;;;;1.50;1.37;;;39.00;39.10;;;;;;6062438;23;20498;-85
2022/07/14 09:53:22;;;;;;;7.00;1.93;;;39.50;37.90;;;;;;6058221;23;20479;-86
2022/07/14 09:55:56;;;;;;;2.17;1.60;;;40.10;38.60;;;;;;6055084;23;20499;-85
2022/07/14 09:58:25;;;;;;;2.13;1.47;;;40.80;37.70;;;;;;6059060;23;20963;-85
2022/07/14 10:00:58;;;;;;;2.67;1.50;;;40.80;36.20;;;;;;6061650;23;20460;-85
2022/07/14 10:03:28;;;;;;;2.80;1.50;;;40.60;36.40;;;;;;6059105;23;20520;-85
2022/07/14 10:05:56;;;;;;;1.57;1.40;;;40.30;37.00;;;;;;6061712;23;20439;-85
2022/07/14 10:08:26;;;;;;;3.70;1.80;;;40.20;37.30;;;;;;6049965;23;20441;-86
2022/07/14 10:10:54;;;;;;;1.60;1.50;;;40.50;36.20;;;;;;6062045;23;20458;-85
2022/07/14 10:13:22;;;;;;;1.73;1.40;;;40.40;37.20;;;;;;6055588;23;20524;-85
2022/07/14 10:15:50;;;;;;;2.03;1.60;;;40.50;37.00;;;;;;6057786;23;20435;-87
2022/07/14 10:18:18;;;;;;;3.67;1.40;;;40.80;35.40;;;;;;6056345;23;20450;-84
2022/07/14 10:20:48;;;;;;;2.97;1.53;;;41.20;35.10;;;;;;6061655;23;20462;-86
2022/07/14 10:23:17;;;;;;;2.03;1.40;;;41.50;34.90;;;;;;6053744;23;20782;-85
2022/07/14 10:25:47;;;;;;;5.70;1.97;;;41.50;35.10;;;;;;6058354;23;20561;-85
2022/07/14 10:28:16;;;;;;;3.43;1.70;;;41.50;34.40;;;;;;6051607;23;20861;-85
2022/07/14 10:30:50;;;;;;;1.50;1.40;;;40.90;34.10;;;;;;6055878;23;20453;-84
2022/07/14 10:33:27;;;;;;;4.53;1.60;;;40.80;34.40;;;;;;6055273;23;20445;-85
2022/07/14 10:36:03;;;;;;;5.30;1.77;;;41.00;35.50;;;;;;6055439;23;20533;-85
2022/07/14 10:38:41;;;;;;;1.83;1.40;;;41.20;34.20;;;;;;6055328;23;20431;-86
2022/07/14 10:41:22;;;;;;;4.37;2.00;;;41.40;34.20;;;;;;6056072;23;20469;-86
2022/07/14 10:44:05;;;;;;;1.53;1.40;;;40.90;34.80;;;;;;6058786;23;20451;-88
2022/07/14 10:46:37;;;;;;;3.00;1.87;;;41.00;35.10;;;;;;6055666;23;20448;-89
2022/07/14 10:49:07;;;;;;;3.37;2.23;;;41.40;35.10;;;;;;6050851;23;20557;-89
2022/07/14 10:51:44;;;;;;;2.90;1.93;;;41.60;34.70;;;;;;6049276;23;20516;-87
2022/07/14 10:54:13;;;;;;;3.13;1.70;;;41.20;34.60;;;;;;6038379;23;20445;-88
2022/07/14 10:56:42;;;;;;;2.20;1.63;;;40.80;35.10;;;;;;6053510;23;20529;-88
2022/07/14 10:59:34;;;;;;;4.37;1.70;;;40.50;35.30;;;;;;6069611;23;20477;-88
2022/07/14 11:02:33;;;;;;;2.50;1.80;;;40.40;35.80;;;;;;6060811;23;20937;-88
2022/07/14 11:05:11;;;;;;;1.60;1.50;;;40.00;35.40;;;;;;6061622;23;20869;-88
2022/07/14 11:07:43;;;;;;;3.60;1.87;;;39.90;36.20;;;;;;6059085;23;21142;-87
2022/07/14 11:10:58;;;;;;;2.27;1.80;;;40.00;36.10;;;;;;6062874;23;20457;-87
2022/07/14 11:13:25;;;;;;;3.57;1.90;;;40.50;35.70;;;;;;5950019;23;20447;-88
2022/07/14 11:15:55;;;;;;;2.43;1.50;;;39.90;35.70;;;;;;5962854;23;20951;-88
2022/07/14 11:18:28;;;;;;;5.37;1.73;;;39.80;37.00;;;;;;5997135;23;20478;-88
2022/07/14 11:20:59;;;;;;;3.40;1.97;;;40.00;37.00;;;;;;6054345;23;20456;-88
2022/07/14 11:23:29;;;;;;;3.00;1.90;;;40.20;37.00;;;;;;6055144;23;20469;-90
2022/07/14 11:25:58;;;;;;;3.23;1.60;;;40.30;36.40;;;;;;6057788;23;21033;-89
2022/07/14 11:28:48;;;;;;;3.30;1.80;;;40.10;36.40;;;;;;6059373;23;20448;-89
2022/07/14 11:31:17;;;;;;;3.00;1.80;;;39.80;36.40;;;;;;6057298;23;20461;-88
2022/07/14 11:36:31;;;;;;;3.10;2.10;;;39.40;37.60;;;;;;6052781;23;20994;-89
2022/07/14 11:39:24;;;;;;;3.07;1.80;;;39.30;37.70;;;;;;6048295;23;20470;-88
2022/07/14 11:42:03;;;;;;;2.13;1.93;;;39.20;37.90;;;;;;6058769;23;20536;-90
2022/07/14 11:44:48;;;;;;;1.70;1.60;;;39.10;38.10;;;;;;6059164;23;20447;-88
2022/07/14 11:47:17;;;;;;;5.93;2.47;;;39.10;38.60;;;;;;6049535;23;20446;-88
2022/07/14 11:49:53;;;;;;;3.43;1.70;;;39.00;38.50;;;;;;6055255;23;21045;-87
2022/07/14 11:52:26;;;;;;;2.33;1.80;;;38.80;38.40;;;;;;6051974;23;20941;-88
2022/07/14 11:54:57;;;;;;;2.80;2.13;;;38.80;38.90;;;;;;6057075;23;20511;-88
2022/07/14 11:57:24;;;;;;;4.03;1.90;;;38.60;39.00;;;;;;6046756;23;20482;-88
2022/07/14 11:59:53;;;;;;;3.10;1.80;;;38.70;38.90;;;;;;6057815;23;20620;-88
2022/07/14 12:02:22;;;;;;;1.90;1.80;;;38.60;39.00;;;;;;6053170;23;20442;-88
2022/07/14 12:04:52;;;;;;;3.00;2.33;;;38.70;39.30;;;;;;6053798;23;20781;-87
2022/07/14 12:07:20;;;;;;;5.20;1.83;;;38.90;39.00;;;;;;6051277;23;20533;-88
2022/07/14 12:09:48;;;;;;;3.33;1.80;;;39.30;39.40;;;;;;6051965;23;21152;-88
2022/07/14 12:12:18;;;;;;;2.27;1.70;;;39.30;38.40;;;;;;6055122;23;20527;-88
2022/07/14 12:14:47;;;;;;;3.70;1.80;;;38.90;38.20;;;;;;6056689;23;20520;-87
2022/07/14 12:17:14;;;;;;;5.77;2.10;;;38.80;37.80;;;;;;6057077;23;20507;-87
2022/07/14 12:19:41;;;;;;;1.93;1.83;;;38.30;38.10;;;;;;6045344;23;20472;-86
2022/07/14 12:22:09;;;;;;;1.90;1.80;;;37.80;38.40;;;;;;6048889;23;20440;-91
2022/07/14 12:24:36;;;;;;;3.53;2.23;;;37.90;39.50;;;;;;6056542;23;20444;-88
2022/07/14 12:27:06;;;;;;;11.50;2.37;;;38.10;39.20;;;;;;6050615;23;20510;-87
2022/07/14 12:29:37;;;;;;;7.07;1.90;;;38.10;38.60;;;;;;6057727;23;20467;-86
2022/07/14 12:32:05;;;;;;;2.83;1.90;;;37.90;39.10;;;;;;6047050;23;20436;-83
2022/07/14 12:34:33;;;;;;;5.10;1.97;;;37.50;38.80;;;;;;6052967;23;20450;-89
2022/07/14 12:37:02;;;;;;;1.83;1.70;;;36.80;39.10;;;;;;6056882;23;20530;-92
2022/07/14 12:39:30;;;;;;;1.93;1.77;;;36.40;39.70;;;;;;6059949;23;20529;-88
2022/07/14 12:41:59;;;;;;;2.67;2.20;;;36.10;40.60;;;;;;6053060;23;20502;-87
2022/07/14 12:44:26;;;;;;;2.30;1.87;;;35.80;40.50;;;;;;6056421;23;20455;-88
2022/07/14 12:47:08;;;;;;;2.47;1.80;;;35.80;40.80;;;;;;6054879;23;20436;-87
2022/07/14 12:49:44;;;;;;;2.87;2.00;;;35.50;40.80;;;;;;6042405;23;20474;-87
2022/07/14 12:52:11;;;;;;;3.03;1.80;;;35.30;41.10;;;;;;6045715;23;21277;-89
2022/07/14 12:54:40;;;;;;;3.07;1.90;;;35.00;41.20;;;;;;6044442;23;20534;-91
2022/07/14 12:57:17;;;;;;;2.50;1.80;;;34.90;41.80;;;;;;6052862;23;20435;-86
2022/07/14 12:59:46;;;;;;;2.87;1.73;;;34.60;42.30;;;;;;6052440;23;20471;-85
2022/07/14 13:02:21;;;;;;;3.10;2.00;;;34.40;42.50;;;;;;6051497;23;20435;-85
2022/07/14 13:04:50;;;;;;;4.50;2.00;;;34.40;42.80;;;;;;6054466;23;20438;-85
2022/07/14 13:07:19;;;;;;;3.50;2.37;;;34.70;42.90;;;;;;6046973;23;20452;-86
2022/07/14 13:10:06;;;;;;;2.87;1.93;;;35.10;42.30;;;;;;6049913;23;20554;-86
2022/07/14 13:12:34;;;;;;;3.87;2.00;;;35.80;41.90;;;;;;6052557;23;20448;-86